createdAt,value
2022-12-26T00:01:11.510Z,0.85
2022-12-26T00:03:39.894Z,0.28
2022-12-26T00:06:16.233Z,0.32
2022-12-26T00:08:44.690Z,0.70
2022-12-26T00:11:12.747Z,0.90
2022-12-26T00:13:41.781Z,1.15
2022-12-26T00:16:16.003Z,0.90
2022-12-26T00:18:44.967Z,3.05
2022-12-26T00:21:14.187Z,1.08
2022-12-26T00:23:43.080Z,1.55
2022-12-26T00:26:13.052Z,1.50
2022-12-26T00:28:41.307Z,0.82
2022-12-26T00:31:12.518Z,1.85
2022-12-26T00:33:40.911Z,1.20
2022-12-26T00:36:14.201Z,1.08
2022-12-26T00:38:43.675Z,1.55
2022-12-26T00:41:12.023Z,0.00
2022-12-26T00:43:39.641Z,0.95
2022-12-26T00:46:08.387Z,1.05
2022-12-26T00:48:36.442Z,1.30
2022-12-26T00:51:04.411Z,0.62
2022-12-26T00:53:33.216Z,1.10
2022-12-26T00:56:01.141Z,1.30
2022-12-26T00:58:29.917Z,3.20
2022-12-26T01:01:31.135Z,1.15
2022-12-26T01:03:59.174Z,0.90
2022-12-26T01:06:27.272Z,1.25
2022-12-26T01:08:55.043Z,0.20
2022-12-26T01:11:40.835Z,1.30
2022-12-26T01:14:14.475Z,1.77
2022-12-26T01:16:44.131Z,0.62
2022-12-26T01:19:12.969Z,1.23
2022-12-26T01:21:42.178Z,0.62
2022-12-26T01:24:09.870Z,0.40
2022-12-26T01:26:37.759Z,1.65
2022-12-26T01:29:05.513Z,0.75
2022-12-26T01:31:33.066Z,1.35
2022-12-26T01:34:01.315Z,2.35
2022-12-26T01:36:28.891Z,0.90
2022-12-26T01:38:56.432Z,1.25
2022-12-26T01:41:24.344Z,1.75
2022-12-26T01:43:53.488Z,1.50
2022-12-26T01:46:26.727Z,0.47
2022-12-26T01:48:56.720Z,0.62
2022-12-26T01:51:25.883Z,1.50
2022-12-26T01:54:39.887Z,0.85
2022-12-26T01:56:45.686Z,2.00
2022-12-26T01:59:19.879Z,2.40
2022-12-26T02:01:49.619Z,1.70
2022-12-26T02:04:51.608Z,1.12
2022-12-26T02:07:20.465Z,0.85
2022-12-26T02:09:48.086Z,1.45
2022-12-26T02:12:34.204Z,1.92
2022-12-26T02:15:14.037Z,2.50
2022-12-26T02:17:41.921Z,1.70
2022-12-26T02:20:12.975Z,1.23
2022-12-26T02:22:51.795Z,2.15
2022-12-26T02:25:31.868Z,3.22
2022-12-26T02:28:16.710Z,2.65
2022-12-26T02:30:51.295Z,2.03
2022-12-26T02:33:22.345Z,2.47
2022-12-26T02:36:15.554Z,1.60
2022-12-26T02:38:58.791Z,1.75
2022-12-26T02:41:31.526Z,3.85
2022-12-26T02:44:36.494Z,1.87
2022-12-26T02:47:26.555Z,4.12
2022-12-26T02:50:38.249Z,1.58
2022-12-26T02:53:42.826Z,3.03
2022-12-26T02:56:39.091Z,1.60
2022-12-26T02:59:55.188Z,1.65
2022-12-26T03:03:14.456Z,2.50
2022-12-26T03:06:06.399Z,1.80
2022-12-26T03:08:56.956Z,2.72
2022-12-26T03:11:48.420Z,2.20
2022-12-26T03:14:20.991Z,1.95
2022-12-26T03:17:09.891Z,1.77
2022-12-26T03:19:58.153Z,1.02
2022-12-26T03:22:31.390Z,2.47
2022-12-26T03:25:28.266Z,2.45
2022-12-26T03:27:58.828Z,2.67
2022-12-26T03:30:44.939Z,0.40
2022-12-26T03:33:31.337Z,1.35
2022-12-26T03:36:00.204Z,2.33
2022-12-26T03:38:35.829Z,1.55
2022-12-26T03:41:36.481Z,0.50
2022-12-26T03:44:45.268Z,1.85
2022-12-26T03:47:33.503Z,1.90
2022-12-26T03:50:25.779Z,2.12
2022-12-26T03:53:21.482Z,1.98
2022-12-26T03:56:15.890Z,1.25
2022-12-26T03:59:35.476Z,1.25
2022-12-26T04:02:25.138Z,2.17
2022-12-26T04:05:13.904Z,1.87
2022-12-26T04:08:11.106Z,1.45
2022-12-26T04:11:07.322Z,1.55
2022-12-26T04:14:13.673Z,1.77
2022-12-26T04:17:23.915Z,1.40
2022-12-26T04:20:00.435Z,1.02
2022-12-26T04:22:56.741Z,1.02
2022-12-26T04:25:48.541Z,2.95
2022-12-26T04:28:39.484Z,1.62
2022-12-26T04:31:28.521Z,1.15
2022-12-26T04:34:18.464Z,2.40
2022-12-26T04:37:20.946Z,1.35
2022-12-26T04:40:10.785Z,1.52
2022-12-26T04:42:58.629Z,1.73
2022-12-26T04:45:28.719Z,1.27
2022-12-26T04:48:15.239Z,2.92
2022-12-26T04:50:51.812Z,0.82
2022-12-26T04:53:20.438Z,0.88
2022-12-26T04:55:48.438Z,1.83
2022-12-26T04:58:17.911Z,0.73
2022-12-26T05:00:45.349Z,0.95
2022-12-26T05:03:33.197Z,1.08
2022-12-26T05:06:19.787Z,1.42
2022-12-26T05:09:07.125Z,1.52
2022-12-26T05:11:35.421Z,1.10
2022-12-26T05:14:03.309Z,1.92
2022-12-26T05:16:49.995Z,2.35
2022-12-26T05:19:36.774Z,1.85
2022-12-26T05:22:23.382Z,0.37
2022-12-26T05:25:10.991Z,2.47
2022-12-26T05:28:00.748Z,0.77
2022-12-26T05:30:29.239Z,1.27
2022-12-26T05:33:15.467Z,1.02
2022-12-26T05:35:43.708Z,1.62
2022-12-26T05:38:12.071Z,1.70
2022-12-26T05:40:39.760Z,1.65
2022-12-26T05:43:08.063Z,2.42
2022-12-26T05:45:35.713Z,1.58
2022-12-26T05:48:03.402Z,1.23
2022-12-26T05:50:31.817Z,2.60
2022-12-26T05:52:59.910Z,3.33
2022-12-26T05:55:27.459Z,1.40
2022-12-26T05:57:56.868Z,1.37
2022-12-26T06:00:24.406Z,1.20
2022-12-26T06:02:52.333Z,2.95
2022-12-26T06:05:20.119Z,2.92
2022-12-26T06:07:48.152Z,1.30
2022-12-26T06:10:16.154Z,1.48
2022-12-26T06:12:43.943Z,2.65
2022-12-26T06:15:12.823Z,1.10
2022-12-26T06:17:41.030Z,2.15
2022-12-26T06:20:08.954Z,2.40
2022-12-26T06:22:36.907Z,1.85
2022-12-26T06:25:05.254Z,4.07
2022-12-26T06:27:33.027Z,3.05
2022-12-26T06:30:00.594Z,3.05
2022-12-26T06:32:28.777Z,3.65
2022-12-26T06:34:56.363Z,1.73
2022-12-26T06:37:23.749Z,2.80
2022-12-26T06:39:51.676Z,3.67
2022-12-26T06:42:19.458Z,3.03
2022-12-26T06:44:47.074Z,1.80
2022-12-26T06:47:14.887Z,3.30
2022-12-26T06:49:42.475Z,2.67
2022-12-26T06:52:11.194Z,2.40
2022-12-26T06:54:39.465Z,2.22
2022-12-26T06:57:07.515Z,1.75
2022-12-26T06:59:35.031Z,1.90
2022-12-26T07:02:03.250Z,2.65
2022-12-26T07:04:31.184Z,3.37
2022-12-26T07:06:58.662Z,2.95
2022-12-26T07:09:31.583Z,2.03
2022-12-26T07:12:01.267Z,4.20
2022-12-26T07:14:29.472Z,1.35
2022-12-26T07:16:57.059Z,2.10
2022-12-26T07:19:25.328Z,2.00
2022-12-26T07:21:53.029Z,1.62
2022-12-26T07:24:22.053Z,1.65
2022-12-26T07:26:49.745Z,4.15
2022-12-26T07:29:18.514Z,2.47
2022-12-26T07:31:46.010Z,1.50
2022-12-26T07:34:14.006Z,1.20
2022-12-26T07:36:44.645Z,2.65
2022-12-26T07:39:13.886Z,0.93
2022-12-26T07:42:00.635Z,0.93
2022-12-26T07:44:30.595Z,2.28
2022-12-26T07:47:01.688Z,4.57
2022-12-26T07:49:29.584Z,2.75
2022-12-26T07:51:57.396Z,2.72
2022-12-26T07:54:28.227Z,3.62
2022-12-26T07:57:15.142Z,1.20
2022-12-26T07:59:44.474Z,4.70
2022-12-26T08:02:16.209Z,0.98
2022-12-26T08:04:44.233Z,1.70
2022-12-26T08:07:12.390Z,2.20
2022-12-26T08:09:42.999Z,2.20
2022-12-26T08:12:11.911Z,1.50
2022-12-26T08:14:40.362Z,1.42
2022-12-26T08:17:11.261Z,2.12
2022-12-26T08:19:40.069Z,1.62
2022-12-26T08:22:08.279Z,3.87
2022-12-26T08:24:35.788Z,1.70
2022-12-26T08:27:04.842Z,2.37
2022-12-26T08:29:32.558Z,4.07
2022-12-26T08:32:00.719Z,3.83
2022-12-26T08:34:33.711Z,1.33
2022-12-26T08:37:01.744Z,2.92
2022-12-26T08:39:29.847Z,4.20
2022-12-26T08:41:57.246Z,5.00
2022-12-26T08:44:27.722Z,3.15
2022-12-26T08:46:55.789Z,2.10
2022-12-26T08:49:23.318Z,2.72
2022-12-26T08:51:50.717Z,1.98
2022-12-26T08:54:18.753Z,2.45
2022-12-26T08:56:46.295Z,4.07
2022-12-26T08:59:14.735Z,3.20
2022-12-26T09:01:42.537Z,1.95
2022-12-26T09:04:10.140Z,3.37
2022-12-26T09:06:39.528Z,2.85
2022-12-26T09:09:08.623Z,3.00
2022-12-26T09:11:35.999Z,2.42
2022-12-26T09:14:04.563Z,1.98
2022-12-26T09:16:39.379Z,3.05
2022-12-26T09:19:12.549Z,2.28
2022-12-26T09:21:40.765Z,1.60
2022-12-26T09:24:13.060Z,2.42
2022-12-26T09:26:41.290Z,2.45
2022-12-26T09:29:11.533Z,2.17
2022-12-26T09:31:40.385Z,2.03
2022-12-26T09:34:09.646Z,2.80
2022-12-26T09:36:38.278Z,2.03
2022-12-26T09:39:07.824Z,2.62
2022-12-26T09:41:38.873Z,2.80
2022-12-26T09:44:34.452Z,1.62
2022-12-26T09:47:16.660Z,3.92
2022-12-26T09:49:53.683Z,3.20
2022-12-26T09:52:34.385Z,3.53
2022-12-26T09:55:06.976Z,3.30
2022-12-26T09:57:40.552Z,2.45
2022-12-26T10:00:18.129Z,3.72
2022-12-26T10:02:52.392Z,3.50
2022-12-26T10:05:26.638Z,3.85
2022-12-26T10:07:58.367Z,3.78
2022-12-26T10:10:36.701Z,4.70
2022-12-26T10:13:15.311Z,2.72
2022-12-26T10:15:46.949Z,3.00
2022-12-26T10:18:27.013Z,4.05
2022-12-26T10:21:11.904Z,5.35
2022-12-26T10:23:43.234Z,1.87
2022-12-26T10:26:33.546Z,2.25
2022-12-26T10:29:28.533Z,3.35
2022-12-26T10:31:59.648Z,3.20
2022-12-26T10:34:41.021Z,2.17
2022-12-26T10:37:31.629Z,2.70
2022-12-26T10:40:02.240Z,3.05
2022-12-26T10:42:43.073Z,2.55
2022-12-26T10:45:19.969Z,2.70
2022-12-26T10:47:48.770Z,4.75
2022-12-26T10:50:26.977Z,2.62
2022-12-26T10:52:56.688Z,4.07
2022-12-26T10:55:31.597Z,2.40
2022-12-26T10:58:19.606Z,3.78
2022-12-26T11:00:47.433Z,4.15
2022-12-26T11:03:18.490Z,4.43
2022-12-26T11:06:06.869Z,5.18
2022-12-26T11:08:51.667Z,3.03
2022-12-26T11:11:46.299Z,4.32
2022-12-26T11:14:38.332Z,1.80
2022-12-26T11:17:13.934Z,3.10
2022-12-26T11:19:44.131Z,2.72
2022-12-26T11:22:20.506Z,4.00
2022-12-26T11:25:24.569Z,2.78
2022-12-26T11:27:54.894Z,3.22
2022-12-26T11:30:31.399Z,2.47
2022-12-26T11:33:17.484Z,3.37
2022-12-26T11:35:52.889Z,2.80
2022-12-26T11:38:44.540Z,0.65
2022-12-26T11:44:23.073Z,5.35
2022-12-26T11:47:06.191Z,3.70
2022-12-26T11:49:36.321Z,2.12
2022-12-26T11:52:37.453Z,4.28
2022-12-26T11:55:23.832Z,3.53
2022-12-26T11:58:06.740Z,5.35
2022-12-26T12:00:42.521Z,3.95
2022-12-26T12:03:13.424Z,4.00
2022-12-26T12:06:02.114Z,3.45
2022-12-26T12:09:02.260Z,2.15
2022-12-26T12:11:56.640Z,3.80
2022-12-26T12:14:34.670Z,4.22
2022-12-26T12:17:08.943Z,2.30
2022-12-26T12:19:47.316Z,2.85
2022-12-26T12:22:29.783Z,2.62
2022-12-26T12:25:16.362Z,2.87
2022-12-26T12:27:53.906Z,2.65
2022-12-26T12:30:34.540Z,2.30
2022-12-26T12:33:18.359Z,2.58
2022-12-26T12:36:13.328Z,3.53
2022-12-26T12:38:56.765Z,2.65
2022-12-26T12:42:05.814Z,3.08
2022-12-26T12:45:01.161Z,1.48
2022-12-26T12:48:01.415Z,1.67
2022-12-26T12:50:43.290Z,2.90
2022-12-26T12:53:32.367Z,3.22
2022-12-26T12:56:07.507Z,3.83
2022-12-26T12:58:55.759Z,3.58
2022-12-26T13:01:28.347Z,4.18
2022-12-26T13:04:06.628Z,3.42
2022-12-26T13:06:53.816Z,2.87
2022-12-26T13:09:25.380Z,3.75
2022-12-26T13:12:00.861Z,4.27
2022-12-26T13:14:36.573Z,3.25
2022-12-26T13:17:26.179Z,2.58
2022-12-26T13:20:20.766Z,1.98
2022-12-26T13:23:17.726Z,1.42
2022-12-26T13:25:49.479Z,3.28
2022-12-26T13:28:21.582Z,3.28
2022-12-26T13:33:23.085Z,4.10
2022-12-26T13:36:02.896Z,4.20
2022-12-26T13:38:58.553Z,3.00
2022-12-26T13:41:45.299Z,3.60
2022-12-26T13:44:18.689Z,3.25
2022-12-26T13:46:46.552Z,3.25
2022-12-26T13:49:36.524Z,3.50
2022-12-26T13:52:10.546Z,4.47
2022-12-26T13:55:07.024Z,3.42
2022-12-26T13:57:34.620Z,4.00
2022-12-26T14:00:04.527Z,2.00
2022-12-26T14:03:20.483Z,3.03
2022-12-26T14:06:12.499Z,2.40
2022-12-26T14:08:54.795Z,4.20
2022-12-26T14:11:35.220Z,2.80
2022-12-26T14:14:26.118Z,3.55
2022-12-26T14:17:19.936Z,2.42
2022-12-26T14:19:50.460Z,2.25
2022-12-26T14:22:41.289Z,4.87
2022-12-26T14:25:14.211Z,6.28
2022-12-26T14:27:49.846Z,6.03
2022-12-26T14:30:31.633Z,3.85
2022-12-26T14:33:27.372Z,4.35
2022-12-26T14:36:11.814Z,3.10
2022-12-26T14:38:47.998Z,2.53
2022-12-26T14:41:36.232Z,6.00
2022-12-26T14:44:37.953Z,3.83
2022-12-26T14:47:06.046Z,5.93
2022-12-26T14:49:35.720Z,4.35
2022-12-26T14:52:25.522Z,3.40
2022-12-26T14:54:53.860Z,3.72
2022-12-26T14:57:48.145Z,3.62
2022-12-26T15:00:28.492Z,5.45
2022-12-26T15:02:58.857Z,3.55
2022-12-26T15:08:13.958Z,2.85
2022-12-26T15:11:19.173Z,4.00
2022-12-26T15:13:55.794Z,3.28
2022-12-26T15:16:39.412Z,4.57
2022-12-26T15:19:36.235Z,5.35
2022-12-26T15:22:38.472Z,1.45
2022-12-26T15:25:19.860Z,2.73
2022-12-26T15:27:57.271Z,4.68
2022-12-26T15:31:03.765Z,3.25
2022-12-26T15:33:46.952Z,2.62
2022-12-26T15:36:22.778Z,2.03
2022-12-26T15:39:17.300Z,1.70
2022-12-26T15:41:47.951Z,2.28
2022-12-26T15:44:27.528Z,1.62
2022-12-26T15:47:01.272Z,2.75
2022-12-26T15:49:44.158Z,3.78
2022-12-26T15:52:33.796Z,1.80
2022-12-26T15:55:04.537Z,2.92
2022-12-26T15:57:51.138Z,1.73
2022-12-26T16:00:30.824Z,1.85
2022-12-26T16:03:10.747Z,3.05
2022-12-26T16:05:40.779Z,2.80
2022-12-26T16:08:27.175Z,2.20
2022-12-26T16:11:14.986Z,3.65
2022-12-26T16:13:54.604Z,1.80
2022-12-26T16:16:29.799Z,3.97
2022-12-26T16:18:58.139Z,2.50
2022-12-26T16:21:46.813Z,3.55
2022-12-26T16:24:16.825Z,4.37
2022-12-26T16:26:46.071Z,5.57
2022-12-26T16:29:18.335Z,5.57
2022-12-26T16:31:46.066Z,6.40
2022-12-26T16:34:18.208Z,6.85
2022-12-26T16:36:46.989Z,5.60
2022-12-26T16:39:22.338Z,5.45
2022-12-26T16:42:02.213Z,2.05
2022-12-26T16:44:37.328Z,5.78
2022-12-26T16:47:07.805Z,4.00
2022-12-26T16:49:36.309Z,5.18
2022-12-26T16:52:04.563Z,5.28
2022-12-26T16:54:40.273Z,6.15
2022-12-26T16:57:20.207Z,3.70
2022-12-26T16:59:57.575Z,5.70
2022-12-26T17:02:32.080Z,4.57
2022-12-26T17:05:05.949Z,4.18
2022-12-26T17:07:37.247Z,9.07
2022-12-26T17:10:09.330Z,5.22
2022-12-26T17:12:40.005Z,4.12
2022-12-26T17:15:08.420Z,3.70
2022-12-26T17:17:39.504Z,7.28
2022-12-26T17:20:23.009Z,5.22
2022-12-26T17:22:53.696Z,5.82
2022-12-26T17:25:21.493Z,5.85
2022-12-26T17:28:09.122Z,4.87
2022-12-26T17:30:38.798Z,3.65
2022-12-26T17:33:17.257Z,4.55
2022-12-26T17:36:44.652Z,4.12
2022-12-26T17:38:36.656Z,6.50
2022-12-26T17:41:05.936Z,5.15
2022-12-26T17:43:36.006Z,5.47
2022-12-26T17:46:05.450Z,6.03
2022-12-26T17:48:33.454Z,6.68
2022-12-26T17:51:06.167Z,9.25
2022-12-26T17:53:38.791Z,5.90
2022-12-26T17:56:08.186Z,6.00
2022-12-26T17:58:36.051Z,6.65
2022-12-26T18:01:04.086Z,6.70
2022-12-26T18:03:32.015Z,5.35
2022-12-26T18:05:59.722Z,11.30
2022-12-26T18:08:38.756Z,6.80
2022-12-26T18:11:11.339Z,5.25
2022-12-26T18:16:07.299Z,4.43
2022-12-26T18:18:39.806Z,8.88
2022-12-26T18:21:10.334Z,5.82
2022-12-26T18:23:38.455Z,7.43
2022-12-26T18:26:08.809Z,9.10
2022-12-26T18:28:36.686Z,5.30
2022-12-26T18:31:04.349Z,5.82
2022-12-26T18:33:31.881Z,7.22
2022-12-26T18:36:05.828Z,8.57
2022-12-26T18:38:34.921Z,5.62
2022-12-26T18:41:02.747Z,3.55
2022-12-26T18:43:30.311Z,7.30
2022-12-26T18:45:57.761Z,5.87
2022-12-26T18:48:25.747Z,6.43
2022-12-26T18:50:53.263Z,5.95
2022-12-26T18:53:20.774Z,7.25
2022-12-26T18:55:48.608Z,6.12
2022-12-26T18:58:16.105Z,9.02
2022-12-26T19:00:43.698Z,4.97
2022-12-26T19:03:11.580Z,3.22
2022-12-26T19:05:39.278Z,7.15
2022-12-26T19:08:06.733Z,4.50
2022-12-26T19:10:35.193Z,5.55
2022-12-26T19:13:06.784Z,9.57
2022-12-26T19:18:04.853Z,6.20
2022-12-26T19:20:32.731Z,5.72
2022-12-26T19:23:00.645Z,9.07
2022-12-26T19:25:28.782Z,8.75
2022-12-26T19:27:56.505Z,6.20
2022-12-26T19:30:24.340Z,4.80
2022-12-26T19:32:52.159Z,5.45
2022-12-26T19:35:19.848Z,5.78
2022-12-26T19:37:47.657Z,7.37
2022-12-26T19:40:18.420Z,5.45
2022-12-26T19:42:49.795Z,7.07
2022-12-26T19:45:17.428Z,8.18
2022-12-26T19:47:45.331Z,7.30
2022-12-26T19:50:14.191Z,9.27
2022-12-26T19:52:41.762Z,7.07
2022-12-26T19:55:11.554Z,6.97
2022-12-26T19:57:39.421Z,5.22
2022-12-26T20:00:07.721Z,8.05
2022-12-26T20:02:41.594Z,11.15
2022-12-26T20:05:10.006Z,9.18
2022-12-26T20:07:37.582Z,7.70
2022-12-26T20:10:05.577Z,6.85
2022-12-26T20:12:33.466Z,3.97
2022-12-26T20:15:01.137Z,6.53
2022-12-26T20:17:28.791Z,6.97
2022-12-26T20:19:56.637Z,6.85
2022-12-26T20:22:24.174Z,4.97
2022-12-26T20:24:51.791Z,4.20
2022-12-26T20:27:19.569Z,5.53
2022-12-26T20:29:47.442Z,6.50
2022-12-26T20:32:15.019Z,5.18
2022-12-26T20:34:42.905Z,7.15
2022-12-26T20:37:10.441Z,4.22
2022-12-26T20:39:37.956Z,4.75
2022-12-26T20:42:05.883Z,5.00
2022-12-26T20:44:33.483Z,5.10
2022-12-26T20:47:00.987Z,3.17
2022-12-26T20:49:29.164Z,3.75
2022-12-26T20:51:56.709Z,3.00
2022-12-26T20:54:24.874Z,4.70
2022-12-26T20:56:52.929Z,5.30
2022-12-26T20:59:20.478Z,5.05
2022-12-26T21:01:48.070Z,3.85
2022-12-26T21:04:18.917Z,3.28
2022-12-26T21:06:47.717Z,4.93
2022-12-26T21:09:15.863Z,5.95
2022-12-26T21:11:45.323Z,4.65
2022-12-26T21:14:16.578Z,3.47
2022-12-26T21:16:51.021Z,4.62
2022-12-26T21:19:19.547Z,1.75
2022-12-26T21:21:50.268Z,5.15
2022-12-26T21:24:26.492Z,5.55
2022-12-26T21:26:55.416Z,5.05
2022-12-26T21:29:26.264Z,3.03
2022-12-26T21:31:54.915Z,3.20
2022-12-26T21:34:24.857Z,2.50
2022-12-26T21:37:11.588Z,4.20
2022-12-26T21:39:41.507Z,3.85
2022-12-26T21:42:09.785Z,4.00
2022-12-26T21:44:37.938Z,3.60
2022-12-26T21:47:08.273Z,4.07
2022-12-26T21:49:37.080Z,5.10
2022-12-26T21:52:06.347Z,6.00
2022-12-26T21:54:53.628Z,3.67
2022-12-26T21:57:21.687Z,3.78
2022-12-26T21:59:56.271Z,4.37
2022-12-26T22:02:49.398Z,8.77
2022-12-26T22:05:19.501Z,5.57
2022-12-26T22:07:47.568Z,5.55
2022-12-26T22:10:33.726Z,5.62
2022-12-26T22:13:02.359Z,3.67
2022-12-26T22:15:48.700Z,5.05
2022-12-26T22:18:16.904Z,3.58
2022-12-26T22:20:45.917Z,3.75
2022-12-26T22:23:13.843Z,3.95
2022-12-26T22:25:41.675Z,3.28
2022-12-26T22:28:09.243Z,3.15
2022-12-26T22:30:36.779Z,3.50
2022-12-26T22:33:04.724Z,6.43
2022-12-26T22:35:32.980Z,3.08
2022-12-26T22:38:00.360Z,4.50
2022-12-26T22:40:28.219Z,3.20
2022-12-26T22:42:55.790Z,4.03
2022-12-26T22:45:23.676Z,4.10
2022-12-26T22:47:51.447Z,3.17
2022-12-26T22:50:18.908Z,2.12
2022-12-26T22:52:46.380Z,3.33
2022-12-26T22:55:14.548Z,4.85
2022-12-26T22:57:42.220Z,2.10
2022-12-26T23:00:13.109Z,4.50
2022-12-26T23:02:41.030Z,3.28
2022-12-26T23:05:10.977Z,3.22
2022-12-26T23:07:38.864Z,4.18
2022-12-26T23:10:08.010Z,3.65
2022-12-26T23:12:45.026Z,2.22
2022-12-26T23:15:14.260Z,3.80
2022-12-26T23:18:05.238Z,3.97
2022-12-26T23:20:54.319Z,2.37
2022-12-26T23:23:23.400Z,4.12
2022-12-26T23:25:51.262Z,4.45
2022-12-26T23:28:37.754Z,3.35
2022-12-26T23:31:05.680Z,3.30
2022-12-26T23:33:33.215Z,2.75
2022-12-26T23:36:00.847Z,4.47
2022-12-26T23:38:28.691Z,3.60
2022-12-26T23:40:56.195Z,5.15
2022-12-26T23:43:23.748Z,3.55
2022-12-26T23:45:51.573Z,4.20
2022-12-26T23:48:19.209Z,4.35
2022-12-26T23:50:46.729Z,2.78
2022-12-26T23:53:14.491Z,3.28
2022-12-26T23:55:42.009Z,3.40
2022-12-26T23:58:09.605Z,2.83
